createdAt,value
2023-12-09T00:00:57.050Z,92445.00
2023-12-09T00:01:57.033Z,92441.00
2023-12-09T00:02:57.104Z,92444.00
2023-12-09T00:03:57.134Z,92445.00
2023-12-09T00:04:57.103Z,92445.00
2023-12-09T00:05:57.296Z,92445.00
2023-12-09T00:06:57.300Z,92446.00
2023-12-09T00:07:57.177Z,92446.00
2023-12-09T00:08:57.278Z,92444.00
2023-12-09T00:09:57.246Z,92444.00
2023-12-09T00:10:57.255Z,92443.00
2023-12-09T00:11:57.301Z,92441.00
2023-12-09T00:12:57.279Z,92440.00
2023-12-09T00:13:57.301Z,92435.00
2023-12-09T00:14:57.349Z,92434.00
2023-12-09T00:15:57.351Z,92437.00
2023-12-09T00:16:57.426Z,92436.00
2023-12-09T00:17:57.463Z,92435.00
2023-12-09T00:18:57.585Z,92434.00
2023-12-09T00:19:57.433Z,92433.00
2023-12-09T00:20:57.475Z,92433.00
2023-12-09T00:21:57.481Z,92432.00
2023-12-09T00:22:57.515Z,92432.00
2023-12-09T00:23:57.561Z,92434.00
2023-12-09T00:24:57.554Z,92436.00
2023-12-09T00:25:57.574Z,92438.00
2023-12-09T00:26:57.653Z,92440.00
2023-12-09T00:27:57.619Z,92438.00
2023-12-09T00:28:57.644Z,92441.00
2023-12-09T00:29:57.701Z,92440.00
2023-12-09T00:30:57.685Z,92442.00
2023-12-09T00:31:57.698Z,92443.00
2023-12-09T00:32:57.840Z,92439.00
2023-12-09T00:33:57.826Z,92440.00
2023-12-09T00:34:57.769Z,92439.00
2023-12-09T00:35:57.810Z,92437.00
2023-12-09T00:36:57.817Z,92438.00
2023-12-09T00:37:57.842Z,92437.00
2023-12-09T00:38:57.906Z,92440.00
2023-12-09T00:39:57.882Z,92440.00
2023-12-09T00:40:57.904Z,92439.00
2023-12-09T00:41:57.969Z,92440.00
2023-12-09T00:42:57.955Z,92444.00
2023-12-09T00:43:57.977Z,92447.00
2023-12-09T00:44:58.033Z,92445.00
2023-12-09T00:45:58.023Z,92446.00
2023-12-09T00:46:58.037Z,92446.00
2023-12-09T00:47:58.148Z,92444.00
2023-12-09T00:48:58.171Z,92442.00
2023-12-09T00:49:58.139Z,92443.00
2023-12-09T00:50:58.150Z,92442.00
2023-12-09T00:51:58.150Z,92443.00
2023-12-09T00:52:58.171Z,92444.00
2023-12-09T00:53:58.201Z,92445.00
2023-12-09T00:54:58.205Z,92444.00
2023-12-09T00:55:58.211Z,92447.00
2023-12-09T00:56:58.260Z,92450.00
2023-12-09T00:57:58.270Z,92451.00
2023-12-09T00:58:58.291Z,92452.00
2023-12-09T00:59:58.362Z,92452.00
2023-12-09T01:00:58.362Z,92454.00
2023-12-09T01:01:58.362Z,92458.00
2023-12-09T01:02:58.443Z,92457.00
2023-12-09T01:03:58.578Z,92461.00
2023-12-09T01:04:58.494Z,92463.00
2023-12-09T01:05:58.543Z,92464.00
2023-12-09T01:06:58.497Z,92467.00
2023-12-09T01:07:58.558Z,92470.00
2023-12-09T01:08:58.576Z,92471.00
2023-12-09T01:09:58.567Z,92472.00
2023-12-09T01:10:58.594Z,92474.00
2023-12-09T01:11:58.640Z,92479.00
2023-12-09T01:12:58.649Z,92477.00
2023-12-09T01:13:58.677Z,92480.00
2023-12-09T01:14:58.725Z,92481.00
2023-12-09T01:15:58.726Z,92481.00
2023-12-09T01:16:58.743Z,92481.00
2023-12-09T01:17:58.838Z,92483.00
2023-12-09T01:18:58.835Z,92483.00
2023-12-09T01:19:58.898Z,92483.00
2023-12-09T01:20:58.890Z,92484.00
2023-12-09T01:21:58.870Z,92481.00
2023-12-09T01:22:58.885Z,92482.00
2023-12-09T01:23:58.931Z,92482.00
2023-12-09T01:24:58.938Z,92483.00
2023-12-09T01:25:58.956Z,92484.00
2023-12-09T01:26:59.001Z,92485.00
2023-12-09T01:27:59.005Z,92487.00
2023-12-09T01:28:59.035Z,92484.00
2023-12-09T01:29:59.073Z,92482.00
2023-12-09T01:30:59.084Z,92482.00
2023-12-09T01:31:59.127Z,92481.00
2023-12-09T01:32:59.251Z,92481.00
2023-12-09T01:33:59.442Z,92481.00
2023-12-09T01:34:59.209Z,92480.00
2023-12-09T01:35:59.248Z,92484.00
2023-12-09T01:36:59.276Z,92483.00
2023-12-09T01:37:59.289Z,92485.00
2023-12-09T01:38:59.350Z,92486.00
2023-12-09T01:39:59.347Z,92487.00
2023-12-09T01:40:59.372Z,92488.00
2023-12-09T01:41:59.442Z,92489.00
2023-12-09T01:42:59.438Z,92488.00
2023-12-09T01:43:59.470Z,92490.00
2023-12-09T01:44:59.571Z,92487.00
2023-12-09T01:45:59.513Z,92487.00
2023-12-09T01:46:59.545Z,92485.00
2023-12-09T01:47:59.690Z,92489.00
2023-12-09T01:48:59.756Z,92489.00
2023-12-09T01:49:59.751Z,92487.00
2023-12-09T01:50:59.688Z,92489.00
2023-12-09T01:51:59.674Z,92490.00
2023-12-09T01:52:59.700Z,92489.00
2023-12-09T01:53:59.746Z,92489.00
2023-12-09T01:54:59.780Z,92487.00
2023-12-09T01:55:59.786Z,92485.00
2023-12-09T01:56:59.860Z,92485.00
2023-12-09T01:57:59.838Z,92485.00
2023-12-09T01:58:59.869Z,92482.00
2023-12-09T01:59:59.926Z,92483.00
2023-12-09T02:00:59.971Z,92487.00
2023-12-09T02:01:59.957Z,92489.00
2023-12-09T02:03:00.099Z,92491.00
2023-12-09T02:04:00.088Z,92492.00
2023-12-09T02:05:00.089Z,92492.00
2023-12-09T02:06:00.098Z,92495.00
2023-12-09T02:07:00.099Z,92497.00
2023-12-09T02:08:00.129Z,92497.00
2023-12-09T02:09:00.300Z,92497.00
2023-12-09T02:10:00.278Z,92497.00
2023-12-09T02:11:00.208Z,92498.00
2023-12-09T02:12:00.272Z,92498.00
2023-12-09T02:13:00.228Z,92499.00
2023-12-09T02:14:00.255Z,92499.00
2023-12-09T02:15:00.383Z,92498.00
2023-12-09T02:16:00.313Z,92499.00
2023-12-09T02:17:00.338Z,92494.00
2023-12-09T02:18:00.507Z,92497.00
2023-12-09T02:19:00.455Z,92494.00
2023-12-09T02:20:00.408Z,92494.00
2023-12-09T02:21:00.448Z,92494.00
2023-12-09T02:22:00.487Z,92494.00
2023-12-09T02:23:00.490Z,92495.00
2023-12-09T02:24:00.634Z,92494.00
2023-12-09T02:25:00.535Z,92494.00
2023-12-09T02:26:00.561Z,92495.00
2023-12-09T02:27:00.632Z,92495.00
2023-12-09T02:28:00.618Z,92500.00
2023-12-09T02:29:00.653Z,92500.00
2023-12-09T02:30:00.747Z,92501.00
2023-12-09T02:31:00.807Z,92503.00
2023-12-09T02:32:00.721Z,92506.00
2023-12-09T02:33:00.819Z,92503.00
2023-12-09T02:34:00.868Z,92502.00
2023-12-09T02:35:00.799Z,92502.00
2023-12-09T02:36:00.851Z,92501.00
2023-12-09T02:37:00.854Z,92502.00
2023-12-09T02:38:00.886Z,92499.00
2023-12-09T02:39:00.943Z,92501.00
2023-12-09T02:40:00.986Z,92500.00
2023-12-09T02:41:00.985Z,92500.00
2023-12-09T02:42:01.028Z,92499.00
2023-12-09T02:43:01.028Z,92501.00
2023-12-09T02:44:01.052Z,92498.00
2023-12-09T02:45:01.177Z,92499.00
2023-12-09T02:46:01.117Z,92498.00
2023-12-09T02:47:01.139Z,92497.00
2023-12-09T02:48:01.417Z,92500.00
2023-12-09T02:49:01.352Z,92503.00
2023-12-09T02:50:01.244Z,92505.00
2023-12-09T02:51:01.316Z,92506.00
2023-12-09T02:52:01.290Z,92505.00
2023-12-09T02:53:01.300Z,92505.00
2023-12-09T02:54:01.345Z,92507.00
2023-12-09T02:55:01.359Z,92505.00
2023-12-09T02:56:01.393Z,92507.00
2023-12-09T02:57:01.440Z,92504.00
2023-12-09T02:58:01.438Z,92507.00
2023-12-09T02:59:01.453Z,92508.00
2023-12-09T03:00:01.494Z,92508.00
2023-12-09T03:01:01.586Z,92512.00
2023-12-09T03:02:01.546Z,92514.00
2023-12-09T03:03:01.622Z,92514.00
2023-12-09T03:04:01.752Z,92513.00
2023-12-09T03:05:01.650Z,92512.00
2023-12-09T03:06:01.704Z,92513.00
2023-12-09T03:07:01.714Z,92517.00
2023-12-09T03:08:01.728Z,92520.00
2023-12-09T03:09:01.778Z,92521.00
2023-12-09T03:10:01.777Z,92522.00
2023-12-09T03:11:01.814Z,92525.00
2023-12-09T03:12:01.884Z,92525.00
2023-12-09T03:13:01.862Z,92525.00
2023-12-09T03:14:01.904Z,92527.00
2023-12-09T03:15:01.956Z,92525.00
2023-12-09T03:16:02.640Z,92525.00
2023-12-09T03:17:01.965Z,92526.00
2023-12-09T03:18:02.192Z,92524.00
2023-12-09T03:19:02.168Z,92525.00
2023-12-09T03:20:02.068Z,92521.00
2023-12-09T03:21:02.099Z,92521.00
2023-12-09T03:22:02.132Z,92524.00
2023-12-09T03:23:02.140Z,92524.00
2023-12-09T03:24:02.223Z,92528.00
2023-12-09T03:25:02.204Z,92532.00
2023-12-09T03:26:02.257Z,92532.00
2023-12-09T03:27:02.297Z,92532.00
2023-12-09T03:28:02.271Z,92536.00
2023-12-09T03:29:02.304Z,92536.00
2023-12-09T03:30:02.413Z,92534.00
2023-12-09T03:31:02.381Z,92533.00
2023-12-09T03:32:02.408Z,92529.00
2023-12-09T03:33:02.565Z,92526.00
2023-12-09T03:34:02.560Z,92526.00
2023-12-09T03:35:02.465Z,92522.00
2023-12-09T03:36:02.530Z,92524.00
2023-12-09T03:37:02.521Z,92526.00
2023-12-09T03:38:02.553Z,92528.00
2023-12-09T03:39:02.591Z,92530.00
2023-12-09T03:40:02.594Z,92531.00
2023-12-09T03:41:02.616Z,92530.00
2023-12-09T03:42:02.683Z,92529.00
2023-12-09T03:43:02.672Z,92529.00
2023-12-09T03:44:02.686Z,92527.00
2023-12-09T03:45:02.753Z,92526.00
2023-12-09T03:46:02.754Z,92522.00
2023-12-09T03:47:06.876Z,92523.00
2023-12-09T03:48:03.966Z,92523.00
2023-12-09T03:49:02.863Z,92524.00
2023-12-09T03:50:02.781Z,92526.00
2023-12-09T03:51:02.815Z,92524.00
2023-12-09T03:52:02.791Z,92524.00
2023-12-09T03:53:02.794Z,92522.00
2023-12-09T03:54:02.862Z,92518.00
2023-12-09T03:55:02.799Z,92513.00
2023-12-09T03:56:02.813Z,92511.00
2023-12-09T03:57:02.834Z,92509.00
2023-12-09T03:58:02.811Z,92509.00
2023-12-09T03:59:02.815Z,92512.00
2023-12-09T04:00:02.897Z,92512.00
2023-12-09T04:01:02.848Z,92509.00
2023-12-09T04:02:02.811Z,92509.00
2023-12-09T04:03:02.840Z,92508.00
2023-12-09T04:04:02.881Z,92508.00
2023-12-09T04:05:02.810Z,92509.00
2023-12-09T04:06:02.957Z,92509.00
2023-12-09T04:07:02.812Z,92511.00
2023-12-09T04:08:02.828Z,92509.00
2023-12-09T04:09:02.873Z,92509.00
2023-12-09T04:10:02.833Z,92511.00
2023-12-09T04:11:02.859Z,92511.00
2023-12-09T04:12:02.916Z,92509.00
2023-12-09T04:13:02.912Z,92506.00
2023-12-09T04:14:02.939Z,92503.00
2023-12-09T04:15:03.028Z,92499.00
2023-12-09T04:16:03.015Z,92500.00
2023-12-09T04:17:03.037Z,92498.00
2023-12-09T04:18:03.188Z,92495.00
2023-12-09T04:19:03.123Z,92495.00
2023-12-09T04:20:03.243Z,92494.00
2023-12-09T04:21:03.148Z,92495.00
2023-12-09T04:22:03.152Z,92493.00
2023-12-09T04:23:03.170Z,92491.00
2023-12-09T04:24:03.240Z,92492.00
2023-12-09T04:25:03.224Z,92492.00
2023-12-09T04:26:03.259Z,92493.00
2023-12-09T04:27:03.334Z,92493.00
2023-12-09T04:28:03.320Z,92493.00
2023-12-09T04:29:03.334Z,92492.00
2023-12-09T04:30:03.436Z,92489.00
2023-12-09T04:31:03.387Z,92488.00
2023-12-09T04:32:03.414Z,92486.00
2023-12-09T04:33:03.538Z,92483.00
2023-12-09T04:34:03.544Z,92481.00
2023-12-09T04:35:03.517Z,92480.00
2023-12-09T04:36:03.551Z,92479.00
2023-12-09T04:37:03.562Z,92480.00
2023-12-09T04:38:03.587Z,92475.00
2023-12-09T04:39:03.676Z,92473.00
2023-12-09T04:40:10.911Z,92471.00
2023-12-09T04:41:10.949Z,92467.00
2023-12-09T04:42:10.984Z,92469.00
2023-12-09T04:43:11.001Z,92467.00
2023-12-09T04:44:11.015Z,92468.00
2023-12-09T04:45:11.072Z,92469.00
2023-12-09T04:46:11.101Z,92468.00
2023-12-09T04:47:11.130Z,92469.00
2023-12-09T04:48:11.368Z,92471.00
2023-12-09T04:49:11.256Z,92470.00
2023-12-09T04:50:11.215Z,92472.00
2023-12-09T04:51:11.265Z,92472.00
2023-12-09T04:52:11.256Z,92475.00
2023-12-09T04:53:11.281Z,92476.00
2023-12-09T04:54:11.337Z,92478.00
2023-12-09T04:55:11.341Z,92480.00
2023-12-09T04:56:11.364Z,92483.00
2023-12-09T04:57:11.424Z,92485.00
2023-12-09T04:58:11.398Z,92486.00
2023-12-09T04:59:11.425Z,92487.00
2023-12-09T05:00:11.496Z,92487.00
2023-12-09T05:01:11.499Z,92485.00
2023-12-09T05:02:11.500Z,92485.00
2023-12-09T05:03:11.577Z,92484.00
2023-12-09T05:04:11.659Z,92481.00
2023-12-09T05:05:11.622Z,92479.00
2023-12-09T05:06:11.722Z,92479.00
2023-12-09T05:07:11.649Z,92483.00
2023-12-09T05:08:11.653Z,92483.00
2023-12-09T05:09:11.759Z,92486.00
2023-12-09T05:10:11.732Z,92489.00
2023-12-09T05:11:11.762Z,92491.00
2023-12-09T05:12:11.825Z,92492.00
2023-12-09T05:13:11.828Z,92490.00
2023-12-09T05:14:11.850Z,92490.00
2023-12-09T05:15:11.905Z,92488.00
2023-12-09T05:16:11.912Z,92487.00
2023-12-09T05:17:11.956Z,92488.00
2023-12-09T05:18:12.080Z,92490.00
2023-12-09T05:19:12.063Z,92493.00
2023-12-09T05:20:12.023Z,92496.00
2023-12-09T05:21:12.073Z,92496.00
2023-12-09T05:22:12.077Z,92494.00
2023-12-09T05:23:12.134Z,92492.00
2023-12-09T05:24:12.164Z,92489.00
2023-12-09T05:25:12.170Z,92486.00
2023-12-09T05:26:12.287Z,92486.00
2023-12-09T05:27:12.294Z,92488.00
2023-12-09T05:28:12.255Z,92489.00
2023-12-09T05:29:12.285Z,92490.00
2023-12-09T05:30:12.359Z,92492.00
2023-12-09T05:31:12.336Z,92495.00
2023-12-09T05:32:12.365Z,92496.00
2023-12-09T05:33:12.573Z,92497.00
2023-12-09T05:34:12.485Z,92498.00
2023-12-09T05:35:12.451Z,92502.00
2023-12-09T05:36:12.504Z,92501.00
2023-12-09T05:37:12.516Z,92500.00
2023-12-09T05:38:12.599Z,92502.00
2023-12-09T05:39:12.608Z,92499.00
2023-12-09T05:40:12.610Z,92499.00
2023-12-09T05:41:12.697Z,92500.00
2023-12-09T05:42:12.745Z,92505.00
2023-12-09T05:43:12.721Z,92501.00
2023-12-09T05:44:12.743Z,92499.00
2023-12-09T05:45:12.808Z,92499.00
2023-12-09T05:46:12.815Z,92499.00
2023-12-09T05:47:12.857Z,92502.00
2023-12-09T05:48:13.138Z,92503.00
2023-12-09T05:49:13.085Z,92503.00
2023-12-09T05:50:12.947Z,92505.00
2023-12-09T05:51:13.031Z,92507.00
2023-12-09T05:52:13.035Z,92508.00
2023-12-09T05:53:13.056Z,92509.00
2023-12-09T05:54:13.136Z,92508.00
2023-12-09T05:55:13.113Z,92505.00
2023-12-09T05:56:13.202Z,92505.00
2023-12-09T05:57:13.250Z,92507.00
2023-12-09T05:58:13.226Z,92507.00
2023-12-09T05:59:13.252Z,92508.00
2023-12-09T06:00:13.312Z,92508.00
2023-12-09T06:01:13.355Z,92508.00
2023-12-09T06:02:13.345Z,92505.00
2023-12-09T06:03:13.440Z,92504.00
2023-12-09T06:04:13.412Z,92504.00
2023-12-09T06:05:13.437Z,92505.00
2023-12-09T06:06:13.620Z,92506.00
2023-12-09T06:07:13.495Z,92504.00
2023-12-09T06:08:13.521Z,92504.00
2023-12-09T06:09:13.593Z,92504.00
2023-12-09T06:10:14.636Z,92503.00
2023-12-09T06:11:13.610Z,92499.00
2023-12-09T06:12:13.667Z,92501.00
2023-12-09T06:13:13.670Z,92504.00
2023-12-09T06:14:13.746Z,92510.00
2023-12-09T06:15:13.772Z,92513.00
2023-12-09T06:16:13.780Z,92512.00
2023-12-09T06:17:13.824Z,92506.00
2023-12-09T06:18:13.952Z,92505.00
2023-12-09T06:19:13.870Z,92504.00
2023-12-09T06:20:13.942Z,92504.00
2023-12-09T06:21:13.979Z,92501.00
2023-12-09T06:22:13.960Z,92503.00
2023-12-09T06:23:13.988Z,92504.00
2023-12-09T06:24:16.613Z,92505.00
2023-12-09T06:25:14.045Z,92504.00
2023-12-09T06:26:14.088Z,92504.00
2023-12-09T06:27:14.298Z,92507.00
2023-12-09T06:28:14.153Z,92508.00
2023-12-09T06:29:14.182Z,92509.00
2023-12-09T06:30:14.258Z,92508.00
2023-12-09T06:31:14.309Z,92505.00
2023-12-09T06:32:14.253Z,92505.00
2023-12-09T06:33:14.403Z,92508.00
2023-12-09T06:34:14.439Z,92508.00
2023-12-09T06:35:14.338Z,92514.00
2023-12-09T06:36:14.407Z,92513.00
2023-12-09T06:37:14.429Z,92514.00
2023-12-09T06:38:14.443Z,92514.00
2023-12-09T06:39:14.499Z,92522.00
2023-12-09T06:40:14.494Z,92527.00
2023-12-09T06:41:14.546Z,92532.00
2023-12-09T06:42:14.608Z,92534.00
2023-12-09T06:43:14.580Z,92537.00
2023-12-09T06:44:14.608Z,92538.00
2023-12-09T06:45:14.701Z,92541.00
2023-12-09T06:46:14.662Z,92543.00
2023-12-09T06:47:14.689Z,92546.00
2023-12-09T06:48:14.870Z,92546.00
2023-12-09T06:49:14.859Z,92546.00
2023-12-09T06:50:14.777Z,92542.00
2023-12-09T06:51:14.805Z,92543.00
2023-12-09T06:52:14.821Z,92542.00
2023-12-09T06:53:15.017Z,92542.00
2023-12-09T06:54:14.924Z,92546.00
2023-12-09T06:55:14.913Z,92543.00
2023-12-09T06:56:14.942Z,92539.00
2023-12-09T06:57:14.991Z,92539.00
2023-12-09T06:58:14.975Z,92536.00
2023-12-09T06:59:15.004Z,92540.00
2023-12-09T07:00:15.056Z,92544.00
2023-12-09T07:01:15.059Z,92545.00
2023-12-09T07:02:15.081Z,92543.00
2023-12-09T07:03:15.161Z,92544.00
2023-12-09T07:04:15.277Z,92543.00
2023-12-09T07:05:15.228Z,92548.00
2023-12-09T07:06:15.201Z,92550.00
2023-12-09T07:07:21.469Z,92550.00
2023-12-09T07:08:16.215Z,92552.00
2023-12-09T07:09:15.253Z,92550.00
2023-12-09T07:10:15.267Z,92550.00
2023-12-09T07:11:15.274Z,92549.00
2023-12-09T07:12:15.430Z,92548.00
2023-12-09T07:13:15.331Z,92549.00
2023-12-09T07:14:15.354Z,92553.00
2023-12-09T07:15:15.424Z,92554.00
2023-12-09T07:16:15.409Z,92557.00
2023-12-09T07:17:15.477Z,92560.00
2023-12-09T07:18:19.257Z,92560.00
2023-12-09T07:19:15.623Z,92566.00
2023-12-09T07:20:15.525Z,92567.00
2023-12-09T07:21:15.583Z,92566.00
2023-12-09T07:22:15.581Z,92564.00
2023-12-09T07:23:15.633Z,92565.00
2023-12-09T07:24:15.690Z,92565.00
2023-12-09T07:25:15.691Z,92567.00
2023-12-09T07:26:15.706Z,92563.00
2023-12-09T07:27:15.756Z,92562.00
2023-12-09T07:28:15.839Z,92564.00
2023-12-09T07:29:15.798Z,92563.00
2023-12-09T07:30:15.874Z,92563.00
2023-12-09T07:31:15.862Z,92562.00
2023-12-09T07:32:15.909Z,92560.00
2023-12-09T07:33:16.288Z,92558.00
2023-12-09T07:34:16.032Z,92553.00
2023-12-09T07:35:16.143Z,92550.00
2023-12-09T07:36:16.038Z,92548.00
2023-12-09T07:37:16.116Z,92547.00
2023-12-09T07:38:16.041Z,92546.00
2023-12-09T07:39:16.093Z,92544.00
2023-12-09T07:40:16.120Z,92543.00
2023-12-09T07:41:16.137Z,92541.00
2023-12-09T07:42:16.194Z,92540.00
2023-12-09T07:43:16.182Z,92538.00
2023-12-09T07:44:16.224Z,92535.00
2023-12-09T07:45:16.253Z,92534.00
2023-12-09T07:46:16.288Z,92532.00
2023-12-09T07:47:16.327Z,92530.00
2023-12-09T07:48:16.762Z,92530.00
2023-12-09T07:49:16.483Z,92531.00
2023-12-09T07:50:16.383Z,92528.00
2023-12-09T07:51:16.446Z,92526.00
2023-12-09T07:52:16.429Z,92524.00
2023-12-09T07:53:16.470Z,92526.00
2023-12-09T07:54:16.520Z,92532.00
2023-12-09T07:55:16.519Z,92537.00
2023-12-09T07:56:16.550Z,92538.00
2023-12-09T07:57:16.640Z,92535.00
2023-12-09T07:58:16.615Z,92543.00
2023-12-09T07:59:16.649Z,92546.00
2023-12-09T08:00:16.695Z,92545.00
2023-12-09T08:01:16.770Z,92542.00
2023-12-09T08:02:16.700Z,92542.00
2023-12-09T08:03:16.877Z,92548.00
2023-12-09T08:04:16.838Z,92551.00
2023-12-09T08:05:16.871Z,92556.00
2023-12-09T08:06:16.857Z,92560.00
2023-12-09T08:07:16.857Z,92560.00
2023-12-09T08:08:16.901Z,92561.00
2023-12-09T08:09:17.063Z,92560.00
2023-12-09T08:10:16.932Z,92560.00
2023-12-09T08:11:16.966Z,92556.00
2023-12-09T08:12:17.017Z,92551.00
2023-12-09T08:13:17.025Z,92548.00
2023-12-09T08:14:17.056Z,92546.00
2023-12-09T08:15:17.100Z,92545.00
2023-12-09T08:16:17.119Z,92546.00
2023-12-09T08:17:17.147Z,92548.00
2023-12-09T08:18:17.273Z,92547.00
2023-12-09T08:19:17.248Z,92546.00
2023-12-09T08:20:17.247Z,92541.00
2023-12-09T08:21:17.378Z,92540.00
2023-12-09T08:22:18.183Z,92542.00
2023-12-09T08:23:17.318Z,92547.00
2023-12-09T08:24:17.403Z,92554.00
2023-12-09T08:25:17.363Z,92558.00
2023-12-09T08:26:17.409Z,92558.00
2023-12-09T08:27:17.455Z,92556.00
2023-12-09T08:28:17.465Z,92552.00
2023-12-09T08:29:17.501Z,92549.00
2023-12-09T08:30:17.582Z,92552.00
2023-12-09T08:31:17.570Z,92556.00
2023-12-09T08:32:17.592Z,92556.00
2023-12-09T08:33:17.800Z,92559.00
2023-12-09T08:34:17.716Z,92557.00
2023-12-09T08:35:17.671Z,92555.00
2023-12-09T08:36:17.725Z,92557.00
2023-12-09T08:37:17.713Z,92552.00
2023-12-09T08:38:17.740Z,92548.00
2023-12-09T08:39:17.769Z,92549.00
2023-12-09T08:40:17.780Z,92550.00
2023-12-09T08:41:17.804Z,92552.00
2023-12-09T08:42:17.838Z,92554.00
2023-12-09T08:43:17.863Z,92552.00
2023-12-09T08:44:17.906Z,92552.00
2023-12-09T08:45:18.158Z,92552.00
2023-12-09T08:46:17.959Z,92552.00
2023-12-09T08:47:18.010Z,92555.00
2023-12-09T08:48:18.113Z,92557.00
2023-12-09T08:49:18.201Z,92561.00
2023-12-09T08:50:23.210Z,92561.00
2023-12-09T08:51:19.212Z,92562.00
2023-12-09T08:52:18.187Z,92561.00
2023-12-09T08:53:18.236Z,92560.00
2023-12-09T08:54:18.236Z,92559.00
2023-12-09T08:55:19.207Z,92559.00
2023-12-09T08:56:18.306Z,92561.00
2023-12-09T08:57:18.346Z,92559.00
2023-12-09T08:58:18.337Z,92559.00
2023-12-09T08:59:18.367Z,92560.00
2023-12-09T09:00:18.435Z,92561.00
2023-12-09T09:01:18.488Z,92561.00
2023-12-09T09:02:18.430Z,92562.00
2023-12-09T09:03:18.553Z,92565.00
2023-12-09T09:04:18.610Z,92568.00
2023-12-09T09:05:18.599Z,92569.00
2023-12-09T09:06:18.615Z,92568.00
2023-12-09T09:07:18.576Z,92569.00
2023-12-09T09:08:18.606Z,92569.00
2023-12-09T09:09:19.731Z,92566.00
2023-12-09T09:10:18.696Z,92563.00
2023-12-09T09:11:18.689Z,92565.00
2023-12-09T09:12:18.756Z,92563.00
2023-12-09T09:13:18.769Z,92560.00
2023-12-09T09:14:18.799Z,92556.00
2023-12-09T09:15:18.840Z,92553.00
2023-12-09T09:16:18.928Z,92552.00
2023-12-09T09:17:19.019Z,92552.00
2023-12-09T09:18:19.082Z,92552.00
2023-12-09T09:19:19.169Z,92555.00
2023-12-09T09:20:19.018Z,92552.00
2023-12-09T09:21:19.085Z,92549.00
2023-12-09T09:22:19.068Z,92544.00
2023-12-09T09:23:19.042Z,92543.00
2023-12-09T09:24:19.171Z,92545.00
2023-12-09T09:25:19.149Z,92545.00
2023-12-09T09:26:19.192Z,92549.00
2023-12-09T09:27:19.273Z,92545.00
2023-12-09T09:28:19.243Z,92544.00
2023-12-09T09:29:19.302Z,92541.00
2023-12-09T09:30:19.454Z,92541.00
2023-12-09T09:31:19.425Z,92538.00
2023-12-09T09:32:19.464Z,92538.00
2023-12-09T09:33:19.641Z,92535.00
2023-12-09T09:34:19.712Z,92531.00
2023-12-09T09:35:19.653Z,92526.00
2023-12-09T09:36:19.802Z,92529.00
2023-12-09T09:37:19.791Z,92531.00
2023-12-09T09:38:19.855Z,92533.00
2023-12-09T09:39:20.135Z,92533.00
2023-12-09T09:40:20.002Z,92531.00
2023-12-09T09:41:20.092Z,92531.00
2023-12-09T09:42:20.192Z,92528.00
2023-12-09T09:43:20.254Z,92527.00
2023-12-09T09:44:20.341Z,92525.00
2023-12-09T09:45:20.462Z,92523.00
2023-12-09T09:46:20.507Z,92519.00
2023-12-09T09:47:20.607Z,92516.00
2023-12-09T09:48:20.824Z,92515.00
2023-12-09T09:49:20.905Z,92517.00
2023-12-09T09:50:20.894Z,92516.00
2023-12-09T09:51:21.005Z,92515.00
2023-12-09T09:52:21.066Z,92513.00
2023-12-09T09:53:21.158Z,92512.00
2023-12-09T09:54:21.265Z,92514.00
2023-12-09T09:55:21.358Z,92513.00
2023-12-09T09:56:21.430Z,92515.00
2023-12-09T09:57:21.527Z,92518.00
2023-12-09T09:58:21.549Z,92519.00
2023-12-09T09:59:21.608Z,92519.00
2023-12-09T10:00:21.752Z,92517.00
2023-12-09T10:01:21.762Z,92517.00
2023-12-09T10:02:21.823Z,92515.00
2023-12-09T10:03:21.933Z,92513.00
2023-12-09T10:04:21.987Z,92508.00
2023-12-09T10:05:22.061Z,92505.00
2023-12-09T10:06:22.298Z,92501.00
2023-12-09T10:07:22.357Z,92498.00
2023-12-09T10:08:22.332Z,92500.00
2023-12-09T10:09:22.529Z,92495.00
2023-12-09T10:10:22.490Z,92491.00
2023-12-09T10:11:22.576Z,92485.00
2023-12-09T10:12:22.700Z,92476.00
2023-12-09T10:13:22.682Z,92467.00
2023-12-09T10:14:22.741Z,92462.00
2023-12-09T10:15:22.883Z,92458.00
2023-12-09T10:16:22.852Z,92456.00
2023-12-09T10:17:22.866Z,92457.00
2023-12-09T10:18:23.045Z,92457.00
2023-12-09T10:19:23.055Z,92455.00
2023-12-09T10:20:22.995Z,92455.00
2023-12-09T10:21:23.021Z,92455.00
2023-12-09T10:22:23.034Z,92453.00
2023-12-09T10:23:23.089Z,92453.00
2023-12-09T10:24:23.173Z,92452.00
2023-12-09T10:25:23.208Z,92450.00
2023-12-09T10:26:23.208Z,92448.00
2023-12-09T10:27:23.326Z,92450.00
2023-12-09T10:28:23.324Z,92449.00
2023-12-09T10:29:23.352Z,92449.00
2023-12-09T10:30:23.458Z,92448.00
2023-12-09T10:31:23.460Z,92449.00
2023-12-09T10:32:23.576Z,92451.00
2023-12-09T10:33:23.775Z,92449.00
2023-12-09T10:34:23.753Z,92449.00
2023-12-09T10:35:23.723Z,92445.00
2023-12-09T10:36:23.740Z,92439.00
2023-12-09T10:37:23.769Z,92433.00
2023-12-09T10:38:23.844Z,92429.00
2023-12-09T10:39:23.934Z,92422.00
2023-12-09T10:40:26.780Z,92420.00
2023-12-09T10:41:23.916Z,92419.00
2023-12-09T10:42:24.110Z,92419.00
2023-12-09T10:43:23.971Z,92416.00
2023-12-09T10:44:23.992Z,92418.00
2023-12-09T10:45:24.112Z,92417.00
2023-12-09T10:46:24.064Z,92419.00
2023-12-09T10:47:24.100Z,92422.00
2023-12-09T10:48:24.349Z,92422.00
2023-12-09T10:49:24.248Z,92421.00
2023-12-09T10:50:24.193Z,92416.00
2023-12-09T10:51:24.269Z,92415.00
2023-12-09T10:52:24.276Z,92411.00
2023-12-09T10:53:24.296Z,92409.00
2023-12-09T10:54:24.337Z,92404.00
2023-12-09T10:55:24.379Z,92403.00
2023-12-09T10:56:24.359Z,92400.00
2023-12-09T10:57:24.400Z,92397.00
2023-12-09T10:58:24.415Z,92395.00
2023-12-09T10:59:24.450Z,92392.00
2023-12-09T11:00:24.524Z,92391.00
2023-12-09T11:01:24.547Z,92389.00
2023-12-09T11:02:24.562Z,92390.00
2023-12-09T11:03:24.601Z,92387.00
2023-12-09T11:04:24.675Z,92388.00
2023-12-09T11:05:24.674Z,92384.00
2023-12-09T11:06:24.676Z,92385.00
2023-12-09T11:07:24.705Z,92383.00
2023-12-09T11:08:24.719Z,92382.00
2023-12-09T11:09:24.804Z,92381.00
2023-12-09T11:10:24.774Z,92381.00
2023-12-09T11:11:24.818Z,92381.00
2023-12-09T11:12:24.998Z,92382.00
2023-12-09T11:13:24.861Z,92381.00
2023-12-09T11:14:24.897Z,92377.00
2023-12-09T11:15:24.977Z,92378.00
2023-12-09T11:16:24.965Z,92379.00
2023-12-09T11:17:25.183Z,92378.00
2023-12-09T11:18:25.261Z,92380.00
2023-12-09T11:19:25.271Z,92383.00
2023-12-09T11:20:25.311Z,92386.00
2023-12-09T11:21:25.146Z,92389.00
2023-12-09T11:22:25.331Z,92389.00
2023-12-09T11:23:25.158Z,92388.00
2023-12-09T11:24:25.205Z,92384.00
2023-12-09T11:25:25.320Z,92382.00
2023-12-09T11:26:25.237Z,92377.00
2023-12-09T11:27:25.305Z,92376.00
2023-12-09T11:28:25.307Z,92374.00
2023-12-09T11:29:25.348Z,92370.00
2023-12-09T11:30:25.390Z,92371.00
2023-12-09T11:31:25.388Z,92367.00
2023-12-09T11:32:25.655Z,92366.00
2023-12-09T11:33:25.534Z,92361.00
2023-12-09T11:34:25.579Z,92361.00
2023-12-09T11:35:25.552Z,92356.00
2023-12-09T11:36:27.403Z,92353.00
2023-12-09T11:37:25.664Z,92351.00
2023-12-09T11:38:25.696Z,92349.00
2023-12-09T11:39:25.770Z,92350.00
2023-12-09T11:40:25.757Z,92350.00
2023-12-09T11:41:25.790Z,92350.00
2023-12-09T11:42:26.172Z,92349.00
2023-12-09T11:43:25.827Z,92348.00
2023-12-09T11:44:25.854Z,92343.00
2023-12-09T11:45:25.930Z,92341.00